Cardiff, California
Current Conditions -  °F | °C
As of 7:53 PM on Friday 19 Dec 2014 (Local Time) from KCRQ Reporting Station
Clear Clear  
Wind Chill: 58°   Ceiling: Unl
Heat Index: 58°   Visibility: 10mi
Dew Point: 51°   Wind: 3mph
Humidity: 78%   Direction: 310°NW
Pressure: 30.17"   Gusts: NA
Location:  33.0233°N, 117.276°W
Report Text: KCRQ 200353Z AUTO 31003KT 10SM CLR 14/11 A3017 RMK AO2 SLP216 T01440106 TSNO
Loading
Personal Weather Stations






























Interactive Weather Map New forecast layout! Learn more

10-Day Weather Forecast

Advertisements
Track Severe Weather on mobile